Jesus Hurtado

Recruteur - Leones
27 Févr 2028
Dimanche
Processus

Personnalité

Adaptabilité (12) Ambition (20) Controverse (5) Loyauté (3) Pression (11) Professionnalisme (2) Sportivité (10) Tempérament (15)

Profil

Style d'entraînement Démocratique
Diplôme Continental C
Détermination 10
Gestion des joueurs 5
Motivation 9
Discipline 10
Satisfaction professionnelle
100%
Fatigue
0%
Rôle Recruteur
Salaire 56.5K p/s
Contrat 14.03.2029

Performance

Comportement Bon
Efficacité de l'entraînement
21%
Développement des joueurs
50%
Prévention des blessures
45%
Mise en place tactique
35%

Événements récents

A participé à une réunion de recrutement maintenant
A participé à une réunion de recrutement 7j
A recommandé une cible de transfert 7j
A recommandé une cible de transfert 7j
A participé à une réunion de recrutement 14j
A recommandé une cible de transfert 14j
A recommandé une cible de transfert 14j
A recommandé une cible de transfert 21j

Suivi en cours

129
Joueur Club Statut Capacité Confiance Observé Dernière observation Dernier vote
Yulián Montaño Depor Actif 70 / 87 65% 1 21.06.2027 Approuver
Darwin Torres Barranquilla Actif 78 / 86 65% 1 07.12.2026 Approuver
Daniel Amador Chiapas Actif 107 / 94 40% 1 29.11.2026 -
Antonio Salado Ospitaletto Actif 96 / 81 40% 1 29.11.2026 -
Matías Contrera Hrvatski Dragovoljac Actif 91 / 108 40% 6 28.11.2026 -
Daniel Vašulín Zbrojovka Brno Actif 102 / 116 40% 1 28.11.2026 -
José Alvarado Leon Actif 102 / 119 40% 1 28.11.2026 -
Misael Sosa Godoy Cruz Actif 111 / 113 40% 2 27.11.2026 -
Carlos Gutiérrez Dorados Actif 113 / 108 40% 2 27.11.2026 -
Santiago Apa All Boys Actif 112 / 102 40% 1 26.11.2026 -
Lautaro Gordillo Colegiales Actif 117 / 105 40% 1 26.11.2026 -
Tomás González Estudiantes Actif 108 / 103 40% 1 24.11.2026 -
Maico Quiroz Güemes Actif 120 / 114 40% 1 24.11.2026 -
Gonzalo Valenzuela Radnicki Nis Actif 109 / 97 40% 1 24.11.2026 -
Pedro Ramírez Deportivo Riestra Actif 112 / 120 40% 3 21.11.2026 -
Ariel Castellano Alvarado Actif 103 / 100 40% 1 21.11.2026 -
Rômulo Tigres Actif 114 / 113 40% 1 21.11.2026 -
Mariano Bracamonte Deportivo Riestra Actif 117 / 113 40% 2 20.11.2026 -
Alejo Dramisino Atlanta Actif 119 / 118 40% 1 20.11.2026 -
Andi Vidal Irkutsk Actif 75 / 85 40% 1 20.11.2026 -
Favio Cabral Mitre Actif 112 / 126 40% 2 16.11.2026 -
David Mazuch FK Senica Actif 112 / 103 40% 1 16.11.2026 -
Blas Armoa Gimnasia y Esgrima Actif 116 / 126 40% 1 14.11.2026 -
Maximiliano Meléndez Chacarita Juniors Actif 112 / 120 40% 2 12.11.2026 -
Santiago Martínez Godoy Cruz Actif 119 / 107 40% 1 12.11.2026 -
Agustín Paz Progreso Actif 121 / 105 40% 1 12.11.2026 -
Gabriel Monjes Hamrun Spartans Actif 83 / 96 40% 1 12.11.2026 -
Bruno Larregui Juventud Actif 126 / 117 40% 3 11.11.2026 -
Alex Vigo Independiente Rivadavia Actif 115 / 118 40% 1 09.11.2026 -
Gianluca Pugliese Güemes Actif 114 / 118 40% 1 09.11.2026 -
Renzo Reynaga Patronato Actif 117 / 106 40% 1 09.11.2026 -
Alexander Díaz Deportivo Riestra Actif 118 / 119 40% 4 07.11.2026 -
Matías Viguet Maipú Actif 119 / 120 40% 2 07.11.2026 -
Elías Pereyra Barracas Central Actif 110 / 118 40% 1 07.11.2026 -
Alejo Montero Newell's Old Boys Actif 127 / 116 40% 1 06.11.2026 -
Luis Olivera Defensores Unidos Actif 118 / 104 40% 1 06.11.2026 -
Jorge Obregón Deportivo Pasto Actif 120 / 122 40% 1 05.11.2026 -
Matías Vargas Gimnasia y Esgrima Actif 135 / 122 40% 2 04.11.2026 -
Federico Versaci Talleres Actif 113 / 108 40% 2 03.11.2026 -
Rodrigo López Pumas UNAM Actif 102 / 116 40% 1 03.11.2026 -
Enzo Silcan Almagro Actif 108 / 114 40% 3 02.11.2026 -
Gastón Moreyra Almirante Brown Actif 105 / 109 40% 1 02.11.2026 -
Andrés Montaño Cruz Azul Actif 114 / 130 40% 1 02.11.2026 -
Nicolás Retamar Ferro Carril Oeste Actif 123 / 110 40% 2 01.11.2026 -
Juan Pablo Gallego Fehervar Actif 119 / 98 40% 2 31.10.2026 -
Ignacio Vallejos Colegiales Actif 117 / 115 40% 1 30.10.2026 -
Franco Vedoya Central Norte Actif 119 / 114 40% 1 30.10.2026 -
Martín Campos Ferro Carril Oeste Actif 116 / 110 40% 1 30.10.2026 -
Esteban Obregón Montevideo City Torque Actif 121 / 121 40% 3 29.10.2026 -
Marcus Vinicius Deportivo Pereira Actif 117 / 103 40% 1 28.10.2026 -
Matías Laurino Gornik Leczna Actif 82 / 101 40% 1 27.10.2026 -
Leandro Suhr Boston River Actif 120 / 113 40% 1 27.10.2026 -
Facundo Lencioni Gimnasia y Esgrima Actif 122 / 126 40% 1 25.10.2026 -
Jonathan Pérez Guadalajara Actif 124 / 111 40% 1 25.10.2026 -
Gastón Verón Argentinos Juniors Actif 121 / 111 40% 1 23.10.2026 -
Alejandro Piedrahita Deportivo Pereira Actif 129 / 132 40% 2 21.10.2026 -
Luca Franco Arsenal Actif 102 / 113 40% 1 19.10.2026 -
Gaspar Duarte Rosario Central Actif 115 / 119 40% 1 19.10.2026 -
Brahian Cuello Unión de Santa Fe Actif 109 / 119 40% 1 18.10.2026 -
Robertino Giacomini Panserraikos Actif 105 / 108 40% 2 17.10.2026 -
Camilo Machado Madryn Actif 104 / 105 40% 1 17.10.2026 -
Julián Brea Cobresal Actif 97 / 112 40% 5 15.10.2026 -
Fernando Mimbacas Juventud Actif 109 / 102 40% 1 15.10.2026 -
Federico Bisanz Atlanta Actif 111 / 109 40% 1 15.10.2026 -
Ezequiel Cañete Huachipato Actif 110 / 122 40% 4 14.10.2026 -
Ulises Sánchez Gimnasia y Esgrima Actif 130 / 124 40% 1 14.10.2026 -
Agustín Gallo Tristán Suárez Actif 112 / 116 40% 1 10.10.2026 -
Alejo Cruz Juventud Actif 111 / 120 40% 1 08.10.2026 -
Emerson Batalla Atletico Bucaramanga Actif 133 / 113 40% 1 08.10.2026 -
Luciano Cosentino Wanderers Actif 125 / 127 40% 3 07.10.2026 -
Julian Herrera Cortulua Actif 120 / 120 40% 4 07.10.2026 -
Maximiliano Rueda Patronato Actif 118 / 113 40% 2 05.10.2026 -
Ramón González Almirante Brown Actif 121 / 115 40% 1 05.10.2026 -
Lisandro Cabrera Maipú Actif 123 / 119 40% 1 03.10.2026 -
Ramiro Ruiz Rodríguez Atlético Tucumán Actif 115 / 124 40% 3 02.10.2026 -
Iñaki Larthirigoyen San Telmo Actif 107 / 123 40% 1 02.10.2026 -
Vicente Poggi Godoy Cruz Actif 128 / 117 40% 1 27.09.2026 -
Agustín Amado Boston River Actif 107 / 117 40% 1 25.09.2026 -
Brian Calderara Chacarita Juniors Actif 107 / 114 40% 1 25.09.2026 -
Alexis Melo All Boys Actif 102 / 118 40% 1 23.09.2026 -
César Magallan Estudiantes de Merida Actif 105 / 107 40% 2 21.09.2026 -
Erik de los Santos Racing Actif 118 / 107 40% 1 21.09.2026 -
Agustín Maidana San Marcos de Arica Actif 112 / 114 40% 2 20.09.2026 -
Milton Valenzuela Atlas Actif 125 / 116 40% 1 20.09.2026 -
Alexis Gutiérrez Club America Actif 130 / 115 40% 2 19.09.2026 -
Jonás Luna Wanderers Actif 116 / 113 40% 1 19.09.2026 -
Nicolás Latorre Miramar Misiones Actif 102 / 114 40% 1 17.09.2026 -
Alan García Wanderers Actif 119 / 118 40% 1 17.09.2026 -
Pablo Aránguiz Union Espanola Actif 112 / 105 40% 1 16.09.2026 -
Christian Larotonda Caracas Actif 121 / 110 40% 1 16.09.2026 -
José Rivera Universitario Actif 116 / 113 40% 1 15.09.2026 -
Diego Sánchez Progreso Actif 97 / 95 40% 1 15.09.2026 -
Yerko Leiva Union La Calera Actif 109 / 111 40% 2 14.09.2026 -
Iván Torregrosa Sibenik Actif 76 / 75 40% 1 14.09.2026 -
Delvin Alfonzo Deportivo Tachira Actif 122 / 105 40% 2 13.09.2026 -
Nestor Romo Veracruz Actif 93 / 121 40% 1 13.09.2026 -
José Alberti Wanderers Actif 115 / 117 40% 1 10.09.2026 -
Juan Romero Olimpia Actif 120 / 107 40% 2 09.09.2026 -
Ekain Orobengoa Real Sociedad Actif 101 / 103 40% 1 09.09.2026 -
Iván Maggi Sportivo Luqueno Actif 118 / 113 40% 2 07.09.2026 -
Michael Vadulli Audax Italiano Actif 105 / 111 40% 1 05.09.2026 -
José Barragán Zamora Actif 103 / 90 40% 1 05.09.2026 -
Marco Collao Audax Italiano Actif 113 / 107 40% 1 02.09.2026 -
Esteban Valencia Cobresal Actif 115 / 108 40% 2 29.08.2026 -
César González Iquique Actif 102 / 98 40% 1 29.08.2026 -
Bryan Rivera Estudiantes de Merida Actif 108 / 102 40% 1 27.08.2026 -
Lucas González Nacional Actif 100 / 98 40% 1 26.08.2026 -
Sebastián Parada San Luis Actif 90 / 92 40% 1 26.08.2026 -
Mauricio Márquez Caracas Actif 106 / 102 40% 2 23.08.2026 -
Jeriel De Santis Caracas Actif 98 / 102 40% 2 22.08.2026 -
Ricardo Echeverría Santos Laguna Actif 117 / 106 40% 1 21.08.2026 -
Alejandro Organista Puebla Actif 94 / 98 40% 1 21.08.2026 -
Duván Rodríguez Jaguares Actif 115 / 115 52% 1 / 1m 19.08.2026 -
Jáder Maza Actif 119 / 119 30% 1 / 1m 19.08.2026 -
Tobías Donsanti OB Actif 85 / 112 40% 1 18.08.2026 -
Santiago Toloza O'Higgins Actif 118 / 115 40% 1 18.08.2026 -
Bryan Carvallo Cobresal Actif 110 / 105 40% 1 18.08.2026 -
Santiago Simón Toluca Actif 124 / 126 40% 1 18.08.2026 -
Junior Paredes Trujillanos Actif 104 / 110 40% 1 16.08.2026 -
Alan Cervantes Club America Actif 114 / 127 40% 1 14.08.2026 -
Luis Iberico Sporting Cristal Actif 113 / 119 40% 1 14.08.2026 -
Paolo Reyna Universitario Actif 108 / 111 40% 1 10.08.2026 -
Ronaldo Peña Deportivo Lara Actif 103 / 101 40% 1 10.08.2026 -
Facundo Kalinger Huracán Actif 110 / 104 40% 1 07.08.2026 -
Jorge Murrugarra Universitario Actif 112 / 119 40% 1 07.08.2026 -
Diego Crego Independiente Rivadavia Actif 119 / 108 40% 1 07.08.2026 -
Cristhián Rivas Estudiantes de Merida Actif 111 / 119 40% 1 04.08.2026 -
Christian Ebere Cruz Azul Actif 113 / 134 40% 1 04.08.2026 -
Brayan Garrido Iquique Actif 107 / 104 40% 1 04.08.2026 -